sensor_id;sensor_type;location;lat;lon;timestamp;pressure;altitude;pressure_sealevel;temperature;humidity
53932;BME280;39844;52.496;13.482;2023-03-13T00:01:55;100449.38;;;6.26;100.00
53932;BME280;39844;52.496;13.482;2023-03-13T00:04:21;100444.22;;;6.31;100.00
53932;BME280;39844;52.496;13.482;2023-03-13T00:06:46;100443.34;;;6.33;100.00
53932;BME280;39844;52.496;13.482;2023-03-13T00:09:14;100438.22;;;6.38;100.00
53932;BME280;39844;52.496;13.482;2023-03-13T00:11:39;100439.97;;;6.41;100.00
53932;BME280;39844;52.496;13.482;2023-03-13T00:14:05;100442.59;;;6.45;100.00
53932;BME280;39844;52.496;13.482;2023-03-13T00:16:31;100440.03;;;6.50;100.00
53932;BME280;39844;52.496;13.482;2023-03-13T00:18:57;100440.06;;;6.53;100.00
53932;BME280;39844;52.496;13.482;2023-03-13T00:21:24;100438.31;;;6.55;100.00
53932;BME280;39844;52.496;13.482;2023-03-13T00:23:51;100434.00;;;6.57;100.00
53932;BME280;39844;52.496;13.482;2023-03-13T00:26:21;100430.53;;;6.58;100.00
53932;BME280;39844;52.496;13.482;2023-03-13T00:28:48;100441.84;;;6.58;100.00
53932;BME280;39844;52.496;13.482;2023-03-13T00:31:16;100417.53;;;6.61;100.00
53932;BME280;39844;52.496;13.482;2023-03-13T00:33:45;100418.41;;;6.63;100.00
53932;BME280;39844;52.496;13.482;2023-03-13T00:38:40;100418.47;;;6.73;100.00
53932;BME280;39844;52.496;13.482;2023-03-13T00:43:32;100418.50;;;6.79;100.00
53932;BME280;39844;52.496;13.482;2023-03-13T00:45:57;100415.03;;;6.82;100.00
53932;BME280;39844;52.496;13.482;2023-03-13T00:48:23;100408.97;;;6.84;100.00
53932;BME280;39844;52.496;13.482;2023-03-13T00:50:48;100412.44;;;6.85;100.00
53932;BME280;39844;52.496;13.482;2023-03-13T00:53:14;100410.72;;;6.85;100.00
53932;BME280;39844;52.496;13.482;2023-03-13T00:55:50;100395.03;;;6.84;100.00
53932;BME280;39844;52.496;13.482;2023-03-13T00:58:15;100398.53;;;6.84;100.00
53932;BME280;39844;52.496;13.482;2023-03-13T01:00:41;100395.06;;;6.82;100.00
53932;BME280;39844;52.496;13.482;2023-03-13T01:03:06;100391.56;;;6.82;100.00
53932;BME280;39844;52.496;13.482;2023-03-13T01:05:31;100397.66;;;6.81;100.00
53932;BME280;39844;52.496;13.482;2023-03-13T01:07:56;100398.53;;;6.78;100.00
53932;BME280;39844;52.496;13.482;2023-03-13T01:10:22;100386.31;;;6.74;100.00
53932;BME280;39844;52.496;13.482;2023-03-13T01:12:47;100388.91;;;6.73;100.00
53932;BME280;39844;52.496;13.482;2023-03-13T01:15:12;100387.16;;;6.72;100.00
53932;BME280;39844;52.496;13.482;2023-03-13T01:17:37;100380.22;;;6.71;100.00
53932;BME280;39844;52.496;13.482;2023-03-13T01:20:03;100381.94;;;6.70;100.00
53932;BME280;39844;52.496;13.482;2023-03-13T01:22:29;100388.00;;;6.68;100.00
53932;BME280;39844;52.496;13.482;2023-03-13T01:24:54;100381.91;;;6.67;100.00
53932;BME280;39844;52.496;13.482;2023-03-13T01:27:19;100378.44;;;6.67;100.00
53932;BME280;39844;52.496;13.482;2023-03-13T01:29:44;100381.03;;;6.67;100.00
53932;BME280;39844;52.496;13.482;2023-03-13T01:32:10;100379.31;;;6.67;100.00
53932;BME280;39844;52.496;13.482;2023-03-13T01:34:35;100385.41;;;6.68;100.00
53932;BME280;39844;52.496;13.482;2023-03-13T01:37:00;100383.69;;;6.70;100.00
53932;BME280;39844;52.496;13.482;2023-03-13T01:39:26;100388.88;;;6.70;100.00
53932;BME280;39844;52.496;13.482;2023-03-13T01:41:51;100387.16;;;6.72;100.00
53932;BME280;39844;52.496;13.482;2023-03-13T01:44:22;100383.69;;;6.70;100.00
53932;BME280;39844;52.496;13.482;2023-03-13T01:46:48;100385.44;;;6.71;100.00
53932;BME280;39844;52.496;13.482;2023-03-13T01:49:18;100371.50;;;6.72;100.00
53932;BME280;39844;52.496;13.482;2023-03-13T01:51:49;100368.91;;;6.72;100.00
53932;BME280;39844;52.496;13.482;2023-03-13T01:57:00;100366.28;;;6.72;100.00
53932;BME280;39844;52.496;13.482;2023-03-13T01:59:29;100355.88;;;6.72;100.00
53932;BME280;39844;52.496;13.482;2023-03-13T02:01:58;100359.34;;;6.71;100.00
53932;BME280;39844;52.496;13.482;2023-03-13T02:04:26;100356.72;;;6.69;100.00
53932;BME280;39844;52.496;13.482;2023-03-13T02:06:55;100350.63;;;6.69;100.00
53932;BME280;39844;52.496;13.482;2023-03-13T02:09:25;100344.56;;;6.68;100.00
53932;BME280;39844;52.496;13.482;2023-03-13T02:12:08;100354.09;;;6.65;100.00
53932;BME280;39844;52.496;13.482;2023-03-13T02:14:36;100341.91;;;6.64;100.00
53932;BME280;39844;52.496;13.482;2023-03-13T02:17:03;100329.75;;;6.64;100.00
53932;BME280;39844;52.496;13.482;2023-03-13T02:19:37;100323.66;;;6.64;100.00
53932;BME280;39844;52.496;13.482;2023-03-13T02:22:38;100322.78;;;6.62;100.00
53932;BME280;39844;52.496;13.482;2023-03-13T02:25:11;100321.03;;;6.59;100.00
53932;BME280;39844;52.496;13.482;2023-03-13T02:27:42;100316.66;;;6.57;100.00
53932;BME280;39844;52.496;13.482;2023-03-13T02:30:10;100322.75;;;6.56;100.00
53932;BME280;39844;52.496;13.482;2023-03-13T02:32:36;100312.31;;;6.54;100.00
53932;BME280;39844;52.496;13.482;2023-03-13T02:35:05;100311.44;;;6.54;100.00
53932;BME280;39844;52.496;13.482;2023-03-13T02:37:31;100314.03;;;6.54;100.00
53932;BME280;39844;52.496;13.482;2023-03-13T02:40:00;100303.59;;;6.54;100.00
53932;BME280;39844;52.496;13.482;2023-03-13T02:42:28;100301.88;;;6.53;100.00
53932;BME280;39844;52.496;13.482;2023-03-13T02:44:54;100315.75;;;6.52;100.00
53932;BME280;39844;52.496;13.482;2023-03-13T02:47:24;100301.00;;;6.51;100.00
53932;BME280;39844;52.496;13.482;2023-03-13T02:49:50;100300.13;;;6.52;100.00
53932;BME280;39844;52.496;13.482;2023-03-13T02:52:25;100295.78;;;6.51;100.00
53932;BME280;39844;52.496;13.482;2023-03-13T02:55:01;100285.38;;;6.51;100.00
53932;BME280;39844;52.496;13.482;2023-03-13T02:57:29;100284.47;;;6.49;100.00
53932;BME280;39844;52.496;13.482;2023-03-13T02:59:54;100279.25;;;6.49;100.00
53932;BME280;39844;52.496;13.482;2023-03-13T03:02:19;100271.44;;;6.49;100.00
53932;BME280;39844;52.496;13.482;2023-03-13T03:04:45;100272.31;;;6.49;100.00
53932;BME280;39844;52.496;13.482;2023-03-13T03:07:10;100272.31;;;6.51;100.00
53932;BME280;39844;52.496;13.482;2023-03-13T03:09:35;100267.13;;;6.51;100.00
53932;BME280;39844;52.496;13.482;2023-03-13T03:12:01;100258.41;;;6.52;100.00
53932;BME280;39844;52.496;13.482;2023-03-13T03:14:26;100253.22;;;6.55;100.00
53932;BME280;39844;52.496;13.482;2023-03-13T03:16:51;100248.03;;;6.58;100.00
53932;BME280;39844;52.496;13.482;2023-03-13T03:19:17;100244.53;;;6.59;100.00
53932;BME280;39844;52.496;13.482;2023-03-13T03:21:42;100248.03;;;6.62;100.00
53932;BME280;39844;52.496;13.482;2023-03-13T03:24:07;100245.44;;;6.62;100.00
53932;BME280;39844;52.496;13.482;2023-03-13T03:26:34;100249.78;;;6.65;100.00
53932;BME280;39844;52.496;13.482;2023-03-13T03:28:59;100245.47;;;6.70;100.00
53932;BME280;39844;52.496;13.482;2023-03-13T03:31:24;100244.59;;;6.71;100.00
53932;BME280;39844;52.496;13.482;2023-03-13T03:33:50;100235.91;;;6.72;100.00
53932;BME280;39844;52.496;13.482;2023-03-13T03:36:18;100237.66;;;6.73;100.00
53932;BME280;39844;52.496;13.482;2023-03-13T03:38:44;100230.69;;;6.75;100.00
53932;BME280;39844;52.496;13.482;2023-03-13T03:41:12;100227.22;;;6.77;100.00
53932;BME280;39844;52.496;13.482;2023-03-13T03:43:37;100227.25;;;6.82;100.00
53932;BME280;39844;52.496;13.482;2023-03-13T03:46:03;100225.53;;;6.85;100.00
53932;BME280;39844;52.496;13.482;2023-03-13T03:48:28;100219.44;;;6.88;100.00
53932;BME280;39844;52.496;13.482;2023-03-13T03:50:54;100219.44;;;6.88;100.00
53932;BME280;39844;52.496;13.482;2023-03-13T03:53:19;100212.50;;;6.88;100.00
53932;BME280;39844;52.496;13.482;2023-03-13T03:55:45;100210.75;;;6.90;100.00
53932;BME280;39844;52.496;13.482;2023-03-13T03:58:10;100209.91;;;6.91;100.00
53932;BME280;39844;52.496;13.482;2023-03-13T04:00:36;100197.72;;;6.93;100.00
53932;BME280;39844;52.496;13.482;2023-03-13T04:03:01;100197.72;;;6.95;100.00
53932;BME280;39844;52.496;13.482;2023-03-13T04:05:26;100201.19;;;6.97;100.00
53932;BME280;39844;52.496;13.482;2023-03-13T04:07:52;100191.63;;;6.97;100.00
53932;BME280;39844;52.496;13.482;2023-03-13T04:10:17;100187.31;;;7.01;100.00
53932;BME280;39844;52.496;13.482;2023-03-13T04:12:43;100183.81;;;7.02;100.00
53932;BME280;39844;52.496;13.482;2023-03-13T04:15:09;100182.09;;;7.04;100.00
53932;BME280;39844;52.496;13.482;2023-03-13T04:17:34;100182.94;;;7.08;100.00
53932;BME280;39844;52.496;13.482;2023-03-13T04:19:59;100177.72;;;7.08;100.00
53932;BME280;39844;52.496;13.482;2023-03-13T04:22:25;100169.03;;;7.10;100.00
53932;BME280;39844;52.496;13.482;2023-03-13T04:24:50;100171.66;;;7.13;100.00
53932;BME280;39844;52.496;13.482;2023-03-13T04:27:16;100155.13;;;7.13;100.00
53932;BME280;39844;52.496;13.482;2023-03-13T04:29:41;100162.97;;;7.14;100.00
53932;BME280;39844;52.496;13.482;2023-03-13T04:32:07;100153.38;;;7.15;100.00
53932;BME280;39844;52.496;13.482;2023-03-13T04:34:32;100156.00;;;7.16;100.00
53932;BME280;39844;52.496;13.482;2023-03-13T04:36:58;100144.69;;;7.14;100.00
53932;BME280;39844;52.496;13.482;2023-03-13T04:39:23;100143.81;;;7.15;100.00
53932;BME280;39844;52.496;13.482;2023-03-13T04:41:48;100131.63;;;7.17;100.00
53932;BME280;39844;52.496;13.482;2023-03-13T04:44:14;100135.13;;;7.19;100.00
53932;BME280;39844;52.496;13.482;2023-03-13T04:46:39;100130.75;;;7.20;100.00
53932;BME280;39844;52.496;13.482;2023-03-13T04:49:04;100128.16;;;7.18;100.00
53932;BME280;39844;52.496;13.482;2023-03-13T04:51:30;100129.03;;;7.19;100.00
53932;BME280;39844;52.496;13.482;2023-03-13T04:53:55;100122.94;;;7.20;100.00
53932;BME280;39844;52.496;13.482;2023-03-13T04:56:25;100110.78;;;7.22;100.00
53932;BME280;39844;52.496;13.482;2023-03-13T04:58:51;100111.63;;;7.21;100.00
53932;BME280;39844;52.496;13.482;2023-03-13T05:01:16;100105.53;;;7.20;100.00
53932;BME280;39844;52.496;13.482;2023-03-13T05:03:41;100097.69;;;7.20;100.00
53932;BME280;39844;52.496;13.482;2023-03-13T05:06:07;100094.25;;;7.21;100.00
53932;BME280;39844;52.496;13.482;2023-03-13T05:08:32;100099.44;;;7.23;100.00
53932;BME280;39844;52.496;13.482;2023-03-13T05:10:57;100084.66;;;7.23;100.00
53932;BME280;39844;52.496;13.482;2023-03-13T05:13:23;100072.50;;;7.24;100.00
53932;BME280;39844;52.496;13.482;2023-03-13T05:15:48;100065.53;;;7.24;100.00
53932;BME280;39844;52.496;13.482;2023-03-13T05:18:13;100060.31;;;7.24;100.00
53932;BME280;39844;52.496;13.482;2023-03-13T05:20:38;100050.72;;;7.23;100.00
53932;BME280;39844;52.496;13.482;2023-03-13T05:23:04;100055.94;;;7.25;100.00
53932;BME280;39844;52.496;13.482;2023-03-13T05:25:29;100048.97;;;7.25;100.00
53932;BME280;39844;52.496;13.482;2023-03-13T05:27:54;100051.59;;;7.25;100.00
53932;BME280;39844;52.496;13.482;2023-03-13T05:30:20;100050.72;;;7.25;100.00
53932;BME280;39844;52.496;13.482;2023-03-13T05:32:45;100038.56;;;7.24;100.00
53932;BME280;39844;52.496;13.482;2023-03-13T05:35:10;100042.03;;;7.23;100.00
53932;BME280;39844;52.496;13.482;2023-03-13T05:37:36;100035.06;;;7.23;100.00
53932;BME280;39844;52.496;13.482;2023-03-13T05:40:01;100028.13;;;7.24;100.00
53932;BME280;39844;52.496;13.482;2023-03-13T05:42:26;100017.69;;;7.24;100.00
53932;BME280;39844;52.496;13.482;2023-03-13T05:44:52;100019.41;;;7.26;100.00
53932;BME280;39844;52.496;13.482;2023-03-13T05:47:17;100019.41;;;7.28;100.00
53932;BME280;39844;52.496;13.482;2023-03-13T05:49:42;100005.47;;;7.29;100.00
53932;BME280;39844;52.496;13.482;2023-03-13T05:52:07;99997.63;;;7.30;100.00
53932;BME280;39844;52.496;13.482;2023-03-13T05:54:33;100001.16;;;7.29;100.00
53932;BME280;39844;52.496;13.482;2023-03-13T05:56:58;99992.41;;;7.30;100.00
53932;BME280;39844;52.496;13.482;2023-03-13T05:59:23;99988.06;;;7.32;100.00
53932;BME280;39844;52.496;13.482;2023-03-13T06:01:49;99976.75;;;7.33;100.00
53932;BME280;39844;52.496;13.482;2023-03-13T06:04:14;99985.44;;;7.32;100.00
53932;BME280;39844;52.496;13.482;2023-03-13T06:06:39;99972.41;;;7.32;100.00
53932;BME280;39844;52.496;13.482;2023-03-13T06:09:05;99970.69;;;7.31;100.00
53932;BME280;39844;52.496;13.482;2023-03-13T06:11:30;99978.50;;;7.31;100.00
53932;BME280;39844;52.496;13.482;2023-03-13T06:13:55;99968.94;;;7.30;100.00
53932;BME280;39844;52.496;13.482;2023-03-13T06:16:21;99971.56;;;7.32;100.00
53932;BME280;39844;52.496;13.482;2023-03-13T06:18:46;99969.78;;;7.32;100.00
53932;BME280;39844;52.496;13.482;2023-03-13T06:21:12;99966.31;;;7.33;100.00
53932;BME280;39844;52.496;13.482;2023-03-13T06:23:38;99957.63;;;7.34;100.00
53932;BME280;39844;52.496;13.482;2023-03-13T06:26:03;99950.66;;;7.36;100.00
53932;BME280;39844;52.496;13.482;2023-03-13T06:28:29;99948.91;;;7.38;100.00
53932;BME280;39844;52.496;13.482;2023-03-13T06:30:54;99945.41;;;7.39;100.00
53932;BME280;39844;52.496;13.482;2023-03-13T06:33:24;99937.59;;;7.39;100.00
53932;BME280;39844;52.496;13.482;2023-03-13T06:35:49;99932.34;;;7.41;100.00
53932;BME280;39844;52.496;13.482;2023-03-13T06:38:15;99920.16;;;7.41;100.00
53932;BME280;39844;52.496;13.482;2023-03-13T06:40:40;99921.03;;;7.43;100.00
53932;BME280;39844;52.496;13.482;2023-03-13T06:43:05;99922.78;;;7.44;100.00
53932;BME280;39844;52.496;13.482;2023-03-13T06:45:31;99910.56;;;7.46;100.00
53932;BME280;39844;52.496;13.482;2023-03-13T06:47:56;99897.50;;;7.49;100.00
53932;BME280;39844;52.496;13.482;2023-03-13T06:50:23;99889.66;;;7.51;100.00
53932;BME280;39844;52.496;13.482;2023-03-13T06:52:49;99887.03;;;7.54;100.00
53932;BME280;39844;52.496;13.482;2023-03-13T06:55:14;99877.47;;;7.57;100.00
53932;BME280;39844;52.496;13.482;2023-03-13T06:57:40;99878.31;;;7.59;100.00
53932;BME280;39844;52.496;13.482;2023-03-13T07:00:05;99858.28;;;7.61;100.00
53932;BME280;39844;52.496;13.482;2023-03-13T07:02:31;99873.03;;;7.65;100.00
53932;BME280;39844;52.496;13.482;2023-03-13T07:04:56;99866.06;;;7.66;100.00
53932;BME280;39844;52.496;13.482;2023-03-13T07:07:22;99864.31;;;7.68;100.00
53932;BME280;39844;52.496;13.482;2023-03-13T07:09:47;99859.09;;;7.70;100.00
53932;BME280;39844;52.496;13.482;2023-03-13T07:12:12;99846.03;;;7.73;100.00
53932;BME280;39844;52.496;13.482;2023-03-13T07:14:38;99842.50;;;7.74;100.00
53932;BME280;39844;52.496;13.482;2023-03-13T07:17:03;99839.91;;;7.75;100.00
53932;BME280;39844;52.496;13.482;2023-03-13T07:19:28;99846.84;;;7.78;100.00
53932;BME280;39844;52.496;13.482;2023-03-13T07:21:53;99852.91;;;7.81;100.00
53932;BME280;39844;52.496;13.482;2023-03-13T07:24:19;99852.03;;;7.85;100.00
53932;BME280;39844;52.496;13.482;2023-03-13T07:26:44;99852.84;;;7.89;100.00
53932;BME280;39844;52.496;13.482;2023-03-13T07:29:09;99839.78;;;7.92;100.00
53932;BME280;39844;52.496;13.482;2023-03-13T07:31:35;99840.63;;;7.94;100.00
53932;BME280;39844;52.496;13.482;2023-03-13T07:34:00;99842.38;;;7.95;100.00
53932;BME280;39844;52.496;13.482;2023-03-13T07:36:26;99834.50;;;7.96;100.00
53932;BME280;39844;52.496;13.482;2023-03-13T07:38:51;99827.53;;;7.97;100.00
53932;BME280;39844;52.496;13.482;2023-03-13T07:41:18;99826.66;;;7.99;100.00
53932;BME280;39844;52.496;13.482;2023-03-13T07:43:43;99824.88;;;8.04;100.00
53932;BME280;39844;52.496;13.482;2023-03-13T07:46:14;99824.81;;;8.09;100.00
53932;BME280;39844;52.496;13.482;2023-03-13T07:48:41;99816.13;;;8.10;100.00
53932;BME280;39844;52.496;13.482;2023-03-13T07:51:11;99819.56;;;8.12;100.00
53932;BME280;39844;52.496;13.482;2023-03-13T07:53:36;99800.38;;;8.14;100.00
53932;BME280;39844;52.496;13.482;2023-03-13T07:56:06;99796.88;;;8.17;100.00
53932;BME280;39844;52.496;13.482;2023-03-13T07:58:35;99790.72;;;8.22;100.00
53932;BME280;39844;52.496;13.482;2023-03-13T08:01:10;99782.88;;;8.27;100.00
53932;BME280;39844;52.496;13.482;2023-03-13T08:03:36;99788.06;;;8.30;100.00
53932;BME280;39844;52.496;13.482;2023-03-13T08:06:07;99788.91;;;8.32;100.00
53932;BME280;39844;52.496;13.482;2023-03-13T08:08:33;99777.59;;;8.33;100.00
53932;BME280;39844;52.496;13.482;2023-03-13T08:11:03;99776.69;;;8.36;100.00
53932;BME280;39844;52.496;13.482;2023-03-13T08:13:30;99762.72;;;8.37;100.00
53932;BME280;39844;52.496;13.482;2023-03-13T08:16:16;99773.19;;;8.37;100.00
53932;BME280;39844;52.496;13.482;2023-03-13T08:18:44;99774.91;;;8.39;100.00
53932;BME280;39844;52.496;13.482;2023-03-13T08:21:14;99781.00;;;8.41;100.00
53932;BME280;39844;52.496;13.482;2023-03-13T08:23:41;99774.00;;;8.43;100.00
53932;BME280;39844;52.496;13.482;2023-03-13T08:26:14;99742.56;;;8.48;100.00
53932;BME280;39844;52.496;13.482;2023-03-13T08:28:40;99759.09;;;8.50;100.00
53932;BME280;39844;52.496;13.482;2023-03-13T08:33:32;99752.94;;;8.55;100.00
53932;BME280;39844;52.496;13.482;2023-03-13T08:35:58;99740.69;;;8.57;100.00
53932;BME280;39844;52.496;13.482;2023-03-13T08:38:23;99732.84;;;8.59;100.00
53932;BME280;39844;52.496;13.482;2023-03-13T08:40:48;99730.19;;;8.63;100.00
53932;BME280;39844;52.496;13.482;2023-03-13T08:43:14;99738.88;;;8.65;100.00
53932;BME280;39844;52.496;13.482;2023-03-13T08:45:39;99722.31;;;8.66;100.00
53932;BME280;39844;52.496;13.482;2023-03-13T08:48:04;99729.25;;;8.67;100.00
53932;BME280;39844;52.496;13.482;2023-03-13T08:50:30;99729.25;;;8.69;100.00
53932;BME280;39844;52.496;13.482;2023-03-13T08:52:55;99730.09;;;8.71;100.00
53932;BME280;39844;52.496;13.482;2023-03-13T08:55:20;99710.00;;;8.73;100.00
53932;BME280;39844;52.496;13.482;2023-03-13T08:57:46;99713.44;;;8.75;100.00
53932;BME280;39844;52.496;13.482;2023-03-13T09:00:11;99717.78;;;8.77;100.00
53932;BME280;39844;52.496;13.482;2023-03-13T09:02:37;99711.63;;;8.80;100.00
53932;BME280;39844;52.496;13.482;2023-03-13T09:05:02;99710.75;;;8.81;100.00
53932;BME280;39844;52.496;13.482;2023-03-13T09:07:28;99705.50;;;8.82;100.00
53932;BME280;39844;52.496;13.482;2023-03-13T09:09:53;99697.63;;;8.85;100.00
53932;BME280;39844;52.496;13.482;2023-03-13T09:12:18;99688.00;;;8.87;100.00
53932;BME280;39844;52.496;13.482;2023-03-13T09:14:43;99686.25;;;8.89;100.00
53932;BME280;39844;52.496;13.482;2023-03-13T09:17:09;99680.94;;;8.93;100.00
53932;BME280;39844;52.496;13.482;2023-03-13T09:19:34;99685.25;;;8.95;100.00
53932;BME280;39844;52.496;13.482;2023-03-13T09:21:59;99678.22;;;9.02;100.00
53932;BME280;39844;52.496;13.482;2023-03-13T09:24:25;99682.53;;;9.04;100.00
53932;BME280;39844;52.496;13.482;2023-03-13T09:26:50;99691.19;;;9.08;100.00
53932;BME280;39844;52.496;13.482;2023-03-13T09:29:15;99687.69;;;9.09;100.00
53932;BME280;39844;52.496;13.482;2023-03-13T09:31:41;99687.66;;;9.12;100.00
53932;BME280;39844;52.496;13.482;2023-03-13T09:34:06;99685.88;;;9.14;100.00
53932;BME280;39844;52.496;13.482;2023-03-13T09:36:31;99684.13;;;9.14;100.00
53932;BME280;39844;52.496;13.482;2023-03-13T09:38:58;99686.69;;;9.16;100.00
53932;BME280;39844;52.496;13.482;2023-03-13T09:41:31;99679.72;;;9.16;100.00
53932;BME280;39844;52.496;13.482;2023-03-13T09:49:11;99690.13;;;9.22;100.00
53932;BME280;39844;52.496;13.482;2023-03-13T09:51:39;99675.19;;;9.26;100.00
53932;BME280;39844;52.496;13.482;2023-03-13T09:54:23;99666.44;;;9.30;100.00
53932;BME280;39844;52.496;13.482;2023-03-13T09:56:54;99663.78;;;9.33;100.00
53932;BME280;39844;52.496;13.482;2023-03-13T10:01:55;99659.31;;;9.38;100.00
53932;BME280;39844;52.496;13.482;2023-03-13T10:04:37;99655.78;;;9.39;100.00
53932;BME280;39844;52.496;13.482;2023-03-13T10:07:09;99659.25;;;9.42;100.00
53932;BME280;39844;52.496;13.482;2023-03-13T10:09:35;99654.84;;;9.44;100.00
53932;BME280;39844;52.496;13.482;2023-03-13T10:19:59;99664.19;;;9.59;100.00
53932;BME280;39844;52.496;13.482;2023-03-13T10:22:27;99658.91;;;9.62;100.00
53932;BME280;39844;52.496;13.482;2023-03-13T10:24:59;99658.81;;;9.68;100.00
53932;BME280;39844;52.496;13.482;2023-03-13T10:27:27;99647.28;;;9.77;100.00
53932;BME280;39844;52.496;13.482;2023-03-13T10:29:52;99641.88;;;9.84;100.00
53932;BME280;39844;52.496;13.482;2023-03-13T10:32:18;99633.06;;;9.90;100.00
53932;BME280;39844;52.496;13.482;2023-03-13T10:34:45;99639.06;;;9.96;100.00
53932;BME280;39844;52.496;13.482;2023-03-13T10:37:14;99637.13;;;10.04;100.00
53932;BME280;39844;52.496;13.482;2023-03-13T10:39:40;99637.03;;;10.10;100.00
53932;BME280;39844;52.496;13.482;2023-03-13T10:42:15;99629.09;;;10.17;100.00
53932;BME280;39844;52.496;13.482;2023-03-13T10:44:42;99627.19;;;10.23;100.00
53932;BME280;39844;52.496;13.482;2023-03-13T10:47:12;99616.50;;;10.34;100.00
53932;BME280;39844;52.496;13.482;2023-03-13T10:49:47;99612.81;;;10.42;100.00
53932;BME280;39844;52.496;13.482;2023-03-13T10:52:29;99608.19;;;10.53;100.00
53932;BME280;39844;52.496;13.482;2023-03-13T10:55:17;99605.28;;;10.67;100.00
53932;BME280;39844;52.496;13.482;2023-03-13T10:57:53;99618.13;;;10.79;100.00
53932;BME280;39844;52.496;13.482;2023-03-13T11:00:36;99595.88;;;10.94;100.00
53932;BME280;39844;52.496;13.482;2023-03-13T11:03:12;99596.38;;;11.09;100.00
53932;BME280;39844;52.496;13.482;2023-03-13T11:05:40;99607.50;;;11.20;100.00
53932;BME280;39844;52.496;13.482;2023-03-13T11:10:55;99584.34;;;11.36;100.00
53932;BME280;39844;52.496;13.482;2023-03-13T11:13:27;99587.69;;;11.42;99.94
53932;BME280;39844;52.496;13.482;2023-03-13T11:15:57;99579.66;;;11.49;99.00
53932;BME280;39844;52.496;13.482;2023-03-13T11:20:52;99559.84;;;11.68;98.70
53932;BME280;39844;52.496;13.482;2023-03-13T11:28:43;99550.75;;;12.12;95.83
53932;BME280;39844;52.496;13.482;2023-03-13T11:36:18;99555.34;;;12.34;93.13
53932;BME280;39844;52.496;13.482;2023-03-13T11:38:52;99550.88;;;12.36;92.32
53932;BME280;39844;52.496;13.482;2023-03-13T11:46:32;99556.56;;;12.52;90.46
53932;BME280;39844;52.496;13.482;2023-03-13T12:00:00;99548.81;;;12.75;88.24
53932;BME280;39844;52.496;13.482;2023-03-13T12:02:34;99556.63;;;12.77;88.31
53932;BME280;39844;52.496;13.482;2023-03-13T12:05:09;99539.13;;;12.76;87.68
53932;BME280;39844;52.496;13.482;2023-03-13T12:07:41;99540.00;;;12.76;87.95
53932;BME280;39844;52.496;13.482;2023-03-13T12:10:14;99534.63;;;12.79;87.89
53932;BME280;39844;52.496;13.482;2023-03-13T12:13:12;99536.97;;;12.88;88.11
53932;BME280;39844;52.496;13.482;2023-03-13T12:15:42;99524.34;;;12.98;88.11
53932;BME280;39844;52.496;13.482;2023-03-13T12:18:24;99526.63;;;13.10;87.50
53932;BME280;39844;52.496;13.482;2023-03-13T12:23:52;99513.53;;;13.33;85.37
53932;BME280;39844;52.496;13.482;2023-03-13T12:26:33;99526.50;;;13.39;85.07
53932;BME280;39844;52.496;13.482;2023-03-13T12:29:15;99520.88;;;13.50;85.18
53932;BME280;39844;52.496;13.482;2023-03-13T12:32:38;99510.78;;;13.61;84.44
53932;BME280;39844;52.496;13.482;2023-03-13T12:34:55;99499.16;;;13.66;83.76
53932;BME280;39844;52.496;13.482;2023-03-13T12:37:42;99500.03;;;13.90;84.42
53932;BME280;39844;52.496;13.482;2023-03-13T12:45:32;99495.31;;;14.44;80.12
53932;BME280;39844;52.496;13.482;2023-03-13T12:48:22;99499.63;;;14.47;79.30
53932;BME280;39844;52.496;13.482;2023-03-13T12:50:57;99484.00;;;14.64;78.91
53932;BME280;39844;52.496;13.482;2023-03-13T12:57:09;99479.56;;;15.06;78.21
53932;BME280;39844;52.496;13.482;2023-03-13T12:59:34;99474.09;;;15.31;76.13
53932;BME280;39844;52.496;13.482;2023-03-13T13:02:01;99461.75;;;15.52;73.88
53932;BME280;39844;52.496;13.482;2023-03-13T13:04:30;99472.31;;;15.52;73.72
53932;BME280;39844;52.496;13.482;2023-03-13T13:06:59;99471.00;;;15.62;73.74
53932;BME280;39844;52.496;13.482;2023-03-13T13:09:28;99461.19;;;15.64;72.80
53932;BME280;39844;52.496;13.482;2023-03-13T13:11:56;99464.22;;;15.75;73.38
53932;BME280;39844;52.496;13.482;2023-03-13T13:17:15;99450.38;;;15.89;71.72
53932;BME280;39844;52.496;13.482;2023-03-13T13:25:00;99446.13;;;15.85;71.85
53932;BME280;39844;52.496;13.482;2023-03-13T13:27:46;99446.72;;;15.72;71.20
53932;BME280;39844;52.496;13.482;2023-03-13T13:32:49;99450.47;;;15.67;72.05
53932;BME280;39844;52.496;13.482;2023-03-13T13:35:39;99433.84;;;15.84;70.94
53932;BME280;39844;52.496;13.482;2023-03-13T13:43:35;99437.63;;;16.15;68.80
53932;BME280;39844;52.496;13.482;2023-03-13T13:48:31;99416.31;;;16.18;69.18
53932;BME280;39844;52.496;13.482;2023-03-13T13:53:46;99423.91;;;16.07;69.37
53932;BME280;39844;52.496;13.482;2023-03-13T14:01:45;99435.84;;;15.97;69.26
53932;BME280;39844;52.496;13.482;2023-03-13T14:04:22;99421.06;;;15.93;69.87
53932;BME280;39844;52.496;13.482;2023-03-13T14:06:51;99420.97;;;15.95;70.07
53932;BME280;39844;52.496;13.482;2023-03-13T14:15:08;99417.47;;;15.94;70.27
53932;BME280;39844;52.496;13.482;2023-03-13T14:18:00;99421.38;;;16.04;69.57
53932;BME280;39844;52.496;13.482;2023-03-13T14:20:30;99413.16;;;16.10;69.65
53932;BME280;39844;52.496;13.482;2023-03-13T14:22:59;99419.25;;;16.12;68.98
53932;BME280;39844;52.496;13.482;2023-03-13T14:25:26;99411.56;;;16.25;69.25
53932;BME280;39844;52.496;13.482;2023-03-13T14:27:53;99423.63;;;16.32;68.18
53932;BME280;39844;52.496;13.482;2023-03-13T14:30:20;99417.22;;;16.36;68.46
53932;BME280;39844;52.496;13.482;2023-03-13T14:32:46;99415.94;;;16.44;67.92